Time;durP1;ratioP1;P1;durP2;ratioP2;P2;SDS_P1;SDS_P2;PMS_P1;PMS_P2;Temp;Humidity;BMP_temperature;BMP_pressure;BME280_temperature;BME280_humidity;BME280_pressure;Samples;Min_cycle;Max_cycle;Signal;HPM_P1;HPM_P2
2023/12/11 00:01:31;;;;;;;22.75;11.88;;;;;;;;;;4963266;28;20113;-73
2023/12/11 00:04:04;;;;;;;20.10;10.60;;;;;;;;;;4967155;28;20121;-72
2023/12/11 00:06:39;;;;;;;22.17;11.90;;;;;;;;;;4963695;28;20502;-61
2023/12/11 00:09:06;;;;;;;24.73;13.23;;;;;;;;;;4966334;28;20047;-61
2023/12/11 00:11:33;;;;;;;23.40;12.25;;;;;;;;;;4963639;28;20561;-60
2023/12/11 00:14:08;;;;;;;22.67;12.38;;;;;;;;;;4980185;28;20077;-60
2023/12/11 00:17:02;;;;;;;24.30;12.05;;;;;;;;;;4967436;28;20050;-60
2023/12/11 00:19:29;;;;;;;23.15;11.52;;;;;;;;;;4967624;28;20057;-60
2023/12/11 00:21:57;;;;;;;22.25;10.85;;;;;;;;;;4967783;28;21216;-59
2023/12/11 00:24:37;;;;;;;21.35;11.25;;;;;;;;;;4981645;28;20452;-57
2023/12/11 00:27:04;;;;;;;20.20;10.10;;;;;;;;;;4979712;28;20524;-72
2023/12/11 00:29:39;;;;;;;21.13;11.25;;;;;;;;;;4978092;28;21085;-73
2023/12/11 00:32:06;;;;;;;21.27;10.02;;;;;;;;;;4975825;28;20060;-72
2023/12/11 00:34:33;;;;;;;18.67;9.25;;;;;;;;;;4980294;28;20050;-72
2023/12/11 00:37:08;;;;;;;19.20;10.32;;;;;;;;;;4980896;28;20482;-61
2023/12/11 00:39:35;;;;;;;18.85;9.82;;;;;;;;;;4980485;28;20078;-53
2023/12/11 00:42:08;;;;;;;17.88;9.75;;;;;;;;;;4983577;28;20098;-50
2023/12/11 00:44:39;;;;;;;17.13;9.95;;;;;;;;;;4976569;28;20621;-52
2023/12/11 00:47:06;;;;;;;20.08;10.52;;;;;;;;;;4979807;28;20062;-51
2023/12/11 00:49:41;;;;;;;14.43;8.45;;;;;;;;;;4978087;28;20058;-52
2023/12/11 00:52:08;;;;;;;;;;;;;;;;;;4980217;28;20414;-55
2023/12/11 00:54:43;;;;;;;18.83;10.70;;;;;;;;;;4978238;28;19929;-60
2023/12/11 00:57:11;;;;;;;15.48;9.30;;;;;;;;;;4976577;28;20470;-59
2023/12/11 00:59:39;;;;;;;15.60;9.43;;;;;;;;;;4975478;28;21072;-59
2023/12/11 01:02:13;;;;;;;18.17;9.88;;;;;;;;;;4977755;28;20078;-60
2023/12/11 01:04:40;;;;;;;17.70;9.07;;;;;;;;;;4983247;28;20050;-55
2023/12/11 01:07:14;;;;;;;20.75;10.18;;;;;;;;;;4981235;28;20050;-60
2023/12/11 01:09:41;;;;;;;18.13;9.95;;;;;;;;;;4984614;28;20050;-59
2023/12/11 01:12:08;;;;;;;;;;;;;;;;;;4981931;28;20062;-59
2023/12/11 01:14:43;;;;;;;17.33;9.85;;;;;;;;;;4980462;28;19968;-60
2023/12/11 01:17:10;;;;;;;19.70;9.88;;;;;;;;;;4980850;28;20304;-59
2023/12/11 01:20:04;;;;;;;18.27;10.40;;;;;;;;;;4984026;28;20906;-59
2023/12/11 01:22:38;;;;;;;19.55;10.77;;;;;;;;;;4983159;28;20089;-58
2023/12/11 01:25:19;;;;;;;16.48;9.43;;;;;;;;;;4979835;28;20069;-59
2023/12/11 01:27:46;;;;;;;20.88;9.82;;;;;;;;;;4979583;28;20138;-60
2023/12/11 01:30:21;;;;;;;17.45;9.95;;;;;;;;;;4980422;28;20058;-60
2023/12/11 01:32:48;;;;;;;19.83;11.27;;;;;;;;;;4975534;28;20066;-60
2023/12/11 01:35:15;;;;;;;17.15;9.52;;;;;;;;;;4983306;28;20051;-49
2023/12/11 01:37:50;;;;;;;19.33;10.55;;;;;;;;;;4981393;28;20050;-51
2023/12/11 01:40:17;;;;;;;21.70;11.48;;;;;;;;;;4984025;28;20054;-50
2023/12/11 01:42:50;;;;;;;23.15;12.32;;;;;;;;;;4977321;28;20051;-49
2023/12/11 01:45:24;;;;;;;21.98;12.27;;;;;;;;;;4982579;28;20069;-53
2023/12/11 01:47:57;;;;;;;23.45;11.57;;;;;;;;;;4980588;28;20113;-49
2023/12/11 01:50:25;;;;;;;21.02;9.57;;;;;;;;;;4983052;28;20426;-60
2023/12/11 01:52:52;;;;;;;21.58;11.73;;;;;;;;;;4982074;28;20501;-59
2023/12/11 01:55:26;;;;;;;20.60;10.82;;;;;;;;;;4985891;28;20054;-60
2023/12/11 01:58:01;;;;;;;22.27;12.52;;;;;;;;;;4980873;28;20058;-60
2023/12/11 02:00:36;;;;;;;22.88;11.85;;;;;;;;;;4985807;28;20057;-64
2023/12/11 02:03:03;;;;;;;23.67;12.13;;;;;;;;;;4978785;28;20053;-54
2023/12/11 02:05:37;;;;;;;22.38;11.23;;;;;;;;;;4984483;28;20408;-52
2023/12/11 02:08:05;;;;;;;22.00;11.85;;;;;;;;;;4977696;28;20188;-51
2023/12/11 02:10:32;;;;;;;21.80;10.80;;;;;;;;;;4986650;28;20058;-49
2023/12/11 02:13:05;;;;;;;23.30;12.18;;;;;;;;;;4984140;28;20065;-52
2023/12/11 02:15:40;;;;;;;23.77;12.25;;;;;;;;;;4988077;28;20054;-50
2023/12/11 02:18:16;;;;;;;24.60;12.95;;;;;;;;;;4981015;28;20072;-49
2023/12/11 02:20:44;;;;;;;21.83;12.43;;;;;;;;;;4983696;28;20057;-60
2023/12/11 02:23:30;;;;;;;22.48;12.27;;;;;;;;;;4982700;28;20113;-60
2023/12/11 02:26:15;;;;;;;27.08;13.57;;;;;;;;;;5006766;28;20062;-59
2023/12/11 02:28:42;;;;;;;22.35;11.65;;;;;;;;;;4982395;28;20132;-62
2023/12/11 02:31:17;;;;;;;21.80;11.73;;;;;;;;;;4984333;28;20050;-63
2023/12/11 02:33:44;;;;;;;24.50;12.80;;;;;;;;;;4985142;28;20061;-60
2023/12/11 02:36:11;;;;;;;;;;;;;;;;;;4985804;28;20066;-60
2023/12/11 02:38:45;;;;;;;28.05;13.50;;;;;;;;;;4985548;28;19921;-60
2023/12/11 02:41:13;;;;;;;25.08;12.43;;;;;;;;;;4983545;28;20108;-60
2023/12/11 02:43:47;;;;;;;27.85;12.90;;;;;;;;;;4984378;28;20149;-60
2023/12/11 02:46:14;;;;;;;23.77;11.63;;;;;;;;;;4984304;28;20577;-60
2023/12/11 02:48:42;;;;;;;22.05;11.80;;;;;;;;;;4982800;28;20620;-63
2023/12/11 02:51:16;;;;;;;24.27;12.45;;;;;;;;;;4985031;28;20608;-64
2023/12/11 02:53:43;;;;;;;24.83;12.35;;;;;;;;;;4985721;28;20505;-62
2023/12/11 02:56:18;;;;;;;27.13;12.82;;;;;;;;;;4978336;28;21263;-63
2023/12/11 02:58:45;;;;;;;26.13;12.25;;;;;;;;;;4984143;28;20050;-51
2023/12/11 03:01:12;;;;;;;23.88;11.35;;;;;;;;;;4978051;28;20089;-62
2023/12/11 03:03:52;;;;;;;24.88;12.35;;;;;;;;;;4983286;28;20493;-62
2023/12/11 03:06:20;;;;;;;22.58;12.73;;;;;;;;;;4981273;28;20061;-62
2023/12/11 03:08:54;;;;;;;25.02;12.10;;;;;;;;;;4985207;28;20104;-62
2023/12/11 03:11:21;;;;;;;24.73;12.30;;;;;;;;;;4981903;28;20212;-62
2023/12/11 03:13:48;;;;;;;25.15;12.98;;;;;;;;;;4982006;28;20058;-62
2023/12/11 03:16:22;;;;;;;26.52;12.70;;;;;;;;;;4980114;28;20054;-60
2023/12/11 03:18:49;;;;;;;26.10;13.30;;;;;;;;;;5008720;28;20103;-60
2023/12/11 03:21:16;;;;;;;28.33;13.50;;;;;;;;;;4979512;28;20057;-60
2023/12/11 03:23:57;;;;;;;29.67;13.52;;;;;;;;;;4978269;28;20066;-60
2023/12/11 03:26:31;;;;;;;28.73;14.38;;;;;;;;;;4983124;28;20608;-62
2023/12/11 03:28:59;;;;;;;30.85;15.73;;;;;;;;;;4984344;28;20062;-60
2023/12/11 03:31:26;;;;;;;30.40;14.70;;;;;;;;;;4984142;28;20055;-60
2023/12/11 03:34:00;;;;;;;28.00;13.88;;;;;;;;;;4985819;28;20379;-58
2023/12/11 03:36:27;;;;;;;27.45;14.82;;;;;;;;;;4976952;28;20509;-60
2023/12/11 03:38:55;;;;;;;25.80;13.45;;;;;;;;;;4980721;28;20599;-58
2023/12/11 03:41:28;;;;;;;25.63;11.80;;;;;;;;;;4980746;28;21415;-59
2023/12/11 03:43:56;;;;;;;26.08;13.85;;;;;;;;;;4979161;28;20420;-59
2023/12/11 03:46:30;;;;;;;28.42;14.40;;;;;;;;;;4979968;28;20069;-59
2023/12/11 03:48:57;;;;;;;28.27;12.95;;;;;;;;;;4978995;28;20154;-59
2023/12/11 03:51:24;;;;;;;29.38;12.68;;;;;;;;;;4976719;28;20054;-59
2023/12/11 03:54:00;;;;;;;26.73;12.60;;;;;;;;;;4981444;28;20508;-60
2023/12/11 03:56:28;;;;;;;27.73;12.80;;;;;;;;;;4978053;28;20108;-61
2023/12/11 03:59:02;;;;;;;27.50;13.25;;;;;;;;;;4982395;28;20058;-60
2023/12/11 04:01:30;;;;;;;25.02;12.82;;;;;;;;;;4978095;28;20057;-59
2023/12/11 04:03:57;;;;;;;24.27;12.23;;;;;;;;;;4982892;28;20050;-59
2023/12/11 04:06:31;;;;;;;24.38;12.65;;;;;;;;;;4979112;28;20058;-59
2023/12/11 04:08:58;;;;;;;24.92;12.20;;;;;;;;;;4981534;28;20232;-58
2023/12/11 04:11:32;;;;;;;26.00;12.90;;;;;;;;;;4979503;28;20069;-60
2023/12/11 04:14:00;;;;;;;27.40;13.20;;;;;;;;;;4983139;28;20066;-60
2023/12/11 04:16:27;;;;;;;25.90;12.82;;;;;;;;;;4976940;28;20062;-60
2023/12/11 04:19:02;;;;;;;26.65;12.43;;;;;;;;;;4979503;28;20556;-60
2023/12/11 04:21:44;;;;;;;25.20;12.35;;;;;;;;;;4977292;28;20285;-60
2023/12/11 04:24:25;;;;;;;23.90;12.73;;;;;;;;;;4965847;28;20074;-62
2023/12/11 04:26:52;;;;;;;24.35;11.60;;;;;;;;;;4965767;28;20097;-63
2023/12/11 04:29:27;;;;;;;24.20;12.40;;;;;;;;;;4964940;28;20471;-63
2023/12/11 04:31:54;;;;;;;23.70;12.20;;;;;;;;;;4967225;28;20058;-63
2023/12/11 04:34:21;;;;;;;;;;;;;;;;;;4966396;28;20062;-62
2023/12/11 04:36:55;;;;;;;23.90;11.45;;;;;;;;;;4975497;28;19926;-62
2023/12/11 04:39:23;;;;;;;25.33;12.00;;;;;;;;;;4965331;28;20050;-62
2023/12/11 04:41:56;;;;;;;22.13;11.77;;;;;;;;;;4963733;28;20050;-52
2023/12/11 04:44:24;;;;;;;20.92;11.38;;;;;;;;;;4964467;28;20509;-53
2023/12/11 04:46:51;;;;;;;20.52;10.85;;;;;;;;;;4967338;28;20097;-50
2023/12/11 04:49:24;;;;;;;20.58;11.90;;;;;;;;;;4963775;28;20475;-54
2023/12/11 04:51:52;;;;;;;21.23;11.13;;;;;;;;;;4966720;28;20154;-63
2023/12/11 04:54:26;;;;;;;18.17;10.25;;;;;;;;;;4962697;28;20065;-53
2023/12/11 04:56:53;;;;;;;21.25;10.75;;;;;;;;;;4964905;28;20054;-54
2023/12/11 04:59:20;;;;;;;;;;;;;;;;;;4959301;28;20430;-53
2023/12/11 05:01:54;;;;;;;20.00;10.38;;;;;;;;;;4960110;28;19985;-51
2023/12/11 05:04:22;;;;;;;19.30;10.45;;;;;;;;;;4961072;28;20061;-52
2023/12/11 05:06:49;;;;;;;19.70;10.13;;;;;;;;;;4961995;28;20074;-49
2023/12/11 05:09:23;;;;;;;18.35;10.38;;;;;;;;;;4961391;28;20059;-60
2023/12/11 05:11:50;;;;;;;21.15;10.15;;;;;;;;;;4962083;28;20055;-60
2023/12/11 05:14:17;;;;;;;19.25;10.07;;;;;;;;;;4963415;28;20769;-60
2023/12/11 05:16:51;;;;;;;20.60;11.02;;;;;;;;;;4954100;28;23797;-60
2023/12/11 05:19:19;;;;;;;19.17;9.93;;;;;;;;;;4957143;28;20054;-60
2023/12/11 05:21:53;;;;;;;17.90;9.63;;;;;;;;;;4954105;28;20054;-63
2023/12/11 05:24:29;;;;;;;19.00;10.82;;;;;;;;;;4970909;28;20058;-62
2023/12/11 05:27:04;;;;;;;17.58;9.20;;;;;;;;;;4975287;28;20054;-63
2023/12/11 05:29:38;;;;;;;18.05;10.70;;;;;;;;;;4975853;28;20160;-62
2023/12/11 05:32:05;;;;;;;16.58;9.25;;;;;;;;;;4978980;28;20054;-62
2023/12/11 05:34:32;;;;;;;;;;;;;;;;;;4975033;28;20054;-63
2023/12/11 05:37:07;;;;;;;15.90;8.63;;;;;;;;;;4972782;28;19926;-62
2023/12/11 05:39:34;;;;;;;16.58;9.07;;;;;;;;;;4973042;28;20074;-73
2023/12/11 05:42:05;;;;;;;17.52;9.25;;;;;;;;;;4976637;28;20049;-73
2023/12/11 05:44:39;;;;;;;16.17;8.73;;;;;;;;;;4971878;28;20173;-73
2023/12/11 05:47:06;;;;;;;14.50;8.30;;;;;;;;;;4975213;28;20219;-73
2023/12/11 05:49:33;;;;;;;15.30;8.40;;;;;;;;;;4975961;28;20137;-60
2023/12/11 05:52:08;;;;;;;12.63;7.25;;;;;;;;;;4978669;28;20058;-61
2023/12/11 05:54:35;;;;;;;16.05;9.00;;;;;;;;;;4972750;28;20506;-60
2023/12/11 05:57:09;;;;;;;16.17;9.35;;;;;;;;;;4970571;28;20058;-60
2023/12/11 05:59:36;;;;;;;14.32;8.13;;;;;;;;;;4979905;28;20101;-60
2023/12/11 06:02:04;;;;;;;18.23;8.60;;;;;;;;;;4982026;28;20140;-60
2023/12/11 06:04:38;;;;;;;14.70;8.00;;;;;;;;;;4985529;28;20129;-60
2023/12/11 06:07:06;;;;;;;15.52;9.45;;;;;;;;;;4997208;28;20142;-60
2023/12/11 06:09:33;;;;;;;17.95;9.38;;;;;;;;;;4982561;28;20437;-62
2023/12/11 06:12:07;;;;;;;17.90;9.50;;;;;;;;;;4983050;28;20061;-59
2023/12/11 06:14:34;;;;;;;;;;;;;;;;;;4980299;28;20050;-59
2023/12/11 06:17:10;;;;;;;15.77;7.93;;;;;;;;;;4977572;28;19926;-62
2023/12/11 06:19:37;;;;;;;;;;;;;;;;;;4981644;28;20334;-49
2023/12/11 06:22:05;;;;;;;12.90;6.53;;;;;;;;;;4979840;28;19926;-50
2023/12/11 06:24:52;;;;;;;14.98;8.35;;;;;;;;;;4981099;28;20154;-52
2023/12/11 06:27:27;;;;;;;11.40;5.97;;;;;;;;;;4982648;28;20137;-51
2023/12/11 06:30:01;;;;;;;15.68;8.73;;;;;;;;;;4983115;28;20687;-50
2023/12/11 06:32:28;;;;;;;;;;;;;;;;;;4979410;28;20606;-49
2023/12/11 06:34:55;;;;;;;15.13;8.35;;;;;;;;;;4982516;28;19984;-63
2023/12/11 06:37:30;;;;;;;12.52;7.88;;;;;;;;;;4981330;28;20145;-63
2023/12/11 06:39:58;;;;;;;14.93;8.23;;;;;;;;;;4985242;28;20129;-63
2023/12/11 06:42:37;;;;;;;15.07;8.38;;;;;;;;;;4984285;28;20058;-63
2023/12/11 06:45:08;;;;;;;15.40;8.70;;;;;;;;;;4987635;28;20050;-52
2023/12/11 06:47:43;;;;;;;13.15;8.00;;;;;;;;;;4979912;28;20160;-63
2023/12/11 06:50:19;;;;;;;15.85;7.70;;;;;;;;;;4988346;28;20053;-62
2023/12/11 06:52:47;;;;;;;13.43;8.27;;;;;;;;;;4980942;28;20054;-63
2023/12/11 06:55:14;;;;;;;13.63;7.85;;;;;;;;;;4983430;28;20053;-62
2023/12/11 06:57:48;;;;;;;13.57;8.48;;;;;;;;;;5008360;28;20253;-62
2023/12/11 07:00:22;;;;;;;13.93;8.50;;;;;;;;;;4982966;28;20414;-62
2023/12/11 07:02:49;;;;;;;11.80;7.80;;;;;;;;;;4978733;28;20458;-62
2023/12/11 07:05:16;;;;;;;;;;;;;;;;;;4983960;28;20062;-62
2023/12/11 07:07:52;;;;;;;14.52;8.50;;;;;;;;;;4980100;28;20004;-62
2023/12/11 07:10:19;;;;;;;14.90;8.15;;;;;;;;;;4985331;28;20446;-62
2023/12/11 07:12:55;;;;;;;12.98;8.07;;;;;;;;;;4978453;28;20065;-62
2023/12/11 07:15:22;;;;;;;12.35;7.55;;;;;;;;;;4984563;28;20042;-62
2023/12/11 07:17:49;;;;;;;10.80;7.07;;;;;;;;;;4982486;28;20494;-49
2023/12/11 07:20:24;;;;;;;14.05;7.43;;;;;;;;;;4985169;28;20136;-53
2023/12/11 07:23:05;;;;;;;15.23;8.13;;;;;;;;;;4977916;28;20117;-51
2023/12/11 07:25:40;;;;;;;13.90;8.13;;;;;;;;;;4979976;28;20058;-54
2023/12/11 07:28:07;;;;;;;12.27;7.68;;;;;;;;;;4980349;28;20054;-53
2023/12/11 07:30:35;;;;;;;15.07;8.68;;;;;;;;;;4981744;28;20141;-52
2023/12/11 07:33:09;;;;;;;14.30;7.72;;;;;;;;;;4977191;28;20089;-64
2023/12/11 07:35:36;;;;;;;12.25;7.60;;;;;;;;;;4979680;28;20116;-65
2023/12/11 07:38:09;;;;;;;12.27;7.35;;;;;;;;;;4982580;28;20054;-64
2023/12/11 07:40:37;;;;;;;13.23;8.20;;;;;;;;;;4986689;28;20493;-63
2023/12/11 07:43:07;;;;;;;13.18;8.10;;;;;;;;;;4980809;28;20189;-61
2023/12/11 07:45:42;;;;;;;13.13;8.25;;;;;;;;;;4983240;28;20569;-64
2023/12/11 07:48:10;;;;;;;14.27;8.82;;;;;;;;;;4982719;28;20141;-64
2023/12/11 07:50:37;;;;;;;;;;;;;;;;;;4982192;28;20050;-65
2023/12/11 07:53:11;;;;;;;13.85;8.32;;;;;;;;;;4982650;28;19932;-65
2023/12/11 07:55:38;;;;;;;14.27;8.88;;;;;;;;;;4982593;28;20054;-64
2023/12/11 07:58:13;;;;;;;13.90;8.13;;;;;;;;;;4976451;28;20054;-64
2023/12/11 08:00:41;;;;;;;14.93;8.13;;;;;;;;;;4981301;28;20046;-73
2023/12/11 08:03:15;;;;;;;14.48;8.02;;;;;;;;;;4976776;28;20607;-73
2023/12/11 08:05:42;;;;;;;13.77;7.97;;;;;;;;;;4981303;28;20050;-73
2023/12/11 08:08:16;;;;;;;12.63;7.72;;;;;;;;;;4981654;28;20054;-73
2023/12/11 08:10:43;;;;;;;13.50;7.97;;;;;;;;;;4981171;28;20065;-64
2023/12/11 08:13:10;;;;;;;14.07;7.50;;;;;;;;;;4978139;28;20777;-57
2023/12/11 08:15:45;;;;;;;13.32;7.47;;;;;;;;;;4982483;28;20054;-65
2023/12/11 08:18:12;;;;;;;;;;;;;;;;;;4982734;28;21823;-64
2023/12/11 08:20:39;;;;;;;13.27;7.20;;;;;;;;;;4983257;28;19928;-64
2023/12/11 08:23:30;;;;;;;14.32;7.45;;;;;;;;;;4980966;28;20046;-64
2023/12/11 08:26:04;;;;;;;13.23;7.53;;;;;;;;;;4979319;28;20049;-64
2023/12/11 08:28:38;;;;;;;12.65;7.18;;;;;;;;;;4980486;28;20477;-64
2023/12/11 08:31:06;;;;;;;12.40;7.68;;;;;;;;;;4977766;28;20050;-64
2023/12/11 08:33:33;;;;;;;12.75;7.50;;;;;;;;;;4980627;28;20537;-64
2023/12/11 08:36:07;;;;;;;10.65;6.45;;;;;;;;;;4982152;28;20232;-64
2023/12/11 08:38:34;;;;;;;10.85;6.80;;;;;;;;;;4983370;28;20469;-55
2023/12/11 08:41:09;;;;;;;13.63;7.55;;;;;;;;;;4979642;28;20049;-65
2023/12/11 08:43:36;;;;;;;11.63;7.22;;;;;;;;;;4980513;28;20050;-64
2023/12/11 08:46:03;;;;;;;11.48;6.35;;;;;;;;;;4978894;28;20062;-65
2023/12/11 08:48:38;;;;;;;10.23;6.50;;;;;;;;;;4976430;28;20077;-64
2023/12/11 08:51:05;;;;;;;10.73;7.03;;;;;;;;;;4978917;28;20062;-65
2023/12/11 08:53:33;;;;;;;9.73;6.55;;;;;;;;;;4981574;28;20498;-64
2023/12/11 08:56:07;;;;;;;10.98;6.68;;;;;;;;;;4981545;28;20502;-64
2023/12/11 08:58:34;;;;;;;9.57;6.05;;;;;;;;;;4981330;28;20598;-64
2023/12/11 09:01:03;;;;;;;10.85;6.60;;;;;;;;;;4979429;28;20050;-64
2023/12/11 09:03:37;;;;;;;9.48;6.47;;;;;;;;;;4981606;28;20141;-63
2023/12/11 09:06:05;;;;;;;10.05;6.50;;;;;;;;;;4983909;28;20042;-64
2023/12/11 09:08:39;;;;;;;8.95;5.93;;;;;;;;;;4979646;28;20042;-64
2023/12/11 09:11:06;;;;;;;9.95;6.07;;;;;;;;;;4981135;28;20105;-57
2023/12/11 09:13:33;;;;;;;9.80;6.65;;;;;;;;;;4979405;28;20140;-58
2023/12/11 09:16:08;;;;;;;9.98;6.28;;;;;;;;;;4976730;28;20050;-58
2023/12/11 09:18:36;;;;;;;9.88;5.88;;;;;;;;;;4981002;28;20113;-55
2023/12/11 09:21:10;;;;;;;11.48;6.50;;;;;;;;;;4980044;28;20137;-56
2023/12/11 09:23:49;;;;;;;9.43;5.57;;;;;;;;;;4978823;28;20058;-57
2023/12/11 09:26:24;;;;;;;8.48;5.85;;;;;;;;;;4968711;28;22174;-64
2023/12/11 09:28:57;;;;;;;9.35;5.93;;;;;;;;;;4968013;28;20120;-65
2023/12/11 09:31:25;;;;;;;;;;;;;;;;;;4967834;28;20059;-64
2023/12/11 09:33:52;;;;;;;10.35;6.32;;;;;;;;;;4965412;28;19969;-64
2023/12/11 09:36:26;;;;;;;8.93;5.38;;;;;;;;;;4966537;28;20681;-61
2023/12/11 09:38:53;;;;;;;9.60;5.82;;;;;;;;;;4984156;28;20059;-61
2023/12/11 09:41:32;;;;;;;8.73;5.75;;;;;;;;;;4966391;28;20081;-62
2023/12/11 09:44:03;;;;;;;9.88;6.43;;;;;;;;;;4966712;28;20047;-61
2023/12/11 09:46:41;;;;;;;11.13;5.83;;;;;;;;;;4971821;28;20057;-61
2023/12/11 09:49:08;;;;;;;8.77;5.68;;;;;;;;;;4964747;28;21299;-62
2023/12/11 09:51:36;;;;;;;8.63;5.53;;;;;;;;;;4965422;28;20099;-61
2023/12/11 09:54:10;;;;;;;11.05;6.38;;;;;;;;;;4965522;28;20514;-61
2023/12/11 09:56:38;;;;;;;9.32;5.93;;;;;;;;;;4962871;28;20058;-61
2023/12/11 09:59:08;;;;;;;9.23;6.13;;;;;;;;;;4966081;28;20498;-61
2023/12/11 10:01:43;;;;;;;9.30;5.03;;;;;;;;;;4962772;28;20413;-61
2023/12/11 10:04:10;;;;;;;11.07;6.13;;;;;;;;;;4967297;28;20845;-65
2023/12/11 10:06:44;;;;;;;9.50;5.88;;;;;;;;;;4967738;28;20050;-74
2023/12/11 10:09:27;;;;;;;8.80;5.82;;;;;;;;;;4964246;28;20061;-66
2023/12/11 10:12:02;;;;;;;8.18;5.80;;;;;;;;;;4966184;28;20057;-65
2023/12/11 10:14:30;;;;;;;9.77;5.90;;;;;;;;;;4962237;28;20250;-64
2023/12/11 10:17:17;;;;;;;9.13;5.20;;;;;;;;;;4965641;28;20046;-64
2023/12/11 10:19:44;;;;;;;11.30;5.95;;;;;;;;;;4964851;28;20055;-64
2023/12/11 10:22:26;;;;;;;9.15;5.60;;;;;;;;;;4966207;28;20050;-52
2023/12/11 10:25:00;;;;;;;11.05;5.85;;;;;;;;;;4980105;28;20100;-55
2023/12/11 10:27:40;;;;;;;10.48;5.90;;;;;;;;;;4981192;28;21142;-54
2023/12/11 10:30:11;;;;;;;8.40;5.35;;;;;;;;;;4984175;28;20062;-53
2023/12/11 10:32:45;;;;;;;6.57;4.85;;;;;;;;;;4983331;28;20112;-64
2023/12/11 10:35:12;;;;;;;;;;;;;;;;;;4982780;28;20057;-55
2023/12/11 10:37:46;;;;;;;8.57;5.65;;;;;;;;;;4983252;28;19937;-64
2023/12/11 10:40:13;;;;;;;9.82;6.13;;;;;;;;;;4980356;28;20121;-65
2023/12/11 10:42:56;;;;;;;7.07;5.03;;;;;;;;;;4977745;28;20201;-65
2023/12/11 10:45:23;;;;;;;7.72;5.22;;;;;;;;;;4982084;28;20137;-64
2023/12/11 10:47:58;;;;;;;11.68;5.45;;;;;;;;;;4977306;28;20520;-64
2023/12/11 10:50:25;;;;;;;9.32;5.72;;;;;;;;;;4981878;28;20113;-65
2023/12/11 10:52:53;;;;;;;8.98;5.43;;;;;;;;;;4985960;28;20081;-65
2023/12/11 10:55:29;;;;;;;7.03;5.05;;;;;;;;;;4981847;28;20502;-64
2023/12/11 10:58:03;;;;;;;7.65;4.90;;;;;;;;;;4982649;28;20062;-63
2023/12/11 11:00:38;;;;;;;5.97;4.25;;;;;;;;;;4980423;28;20057;-50
2023/12/11 11:03:07;;;;;;;8.50;5.38;;;;;;;;;;4984579;28;20069;-58
2023/12/11 11:05:35;;;;;;;7.30;5.45;;;;;;;;;;4979125;28;20057;-60
2023/12/11 11:08:15;;;;;;;7.88;4.85;;;;;;;;;;4981848;28;20573;-60
2023/12/11 11:10:50;;;;;;;8.07;5.15;;;;;;;;;;4977325;28;20055;-59
2023/12/11 11:13:42;;;;;;;8.20;5.10;;;;;;;;;;4981122;28;20139;-61
2023/12/11 11:16:10;;;;;;;7.35;5.45;;;;;;;;;;4981764;28;20104;-60
2023/12/11 11:19:03;;;;;;;7.05;4.72;;;;;;;;;;4980606;28;20292;-60
2023/12/11 11:21:31;;;;;;;6.50;4.47;;;;;;;;;;4981877;28;20145;-60
2023/12/11 11:24:27;;;;;;;11.48;5.72;;;;;;;;;;4978287;28;20061;-61
2023/12/11 11:26:55;;;;;;;8.55;5.03;;;;;;;;;;4961684;28;20050;-61
2023/12/11 11:29:41;;;;;;;8.27;5.15;;;;;;;;;;4964274;28;20046;-52
2023/12/11 11:32:09;;;;;;;8.55;5.57;;;;;;;;;;4960530;28;20139;-73
2023/12/11 11:34:45;;;;;;;9.88;6.38;;;;;;;;;;4959928;28;20050;-56
2023/12/11 11:37:38;;;;;;;8.63;5.57;;;;;;;;;;4966601;28;20051;-57
2023/12/11 11:40:13;;;;;;;7.70;4.70;;;;;;;;;;4966779;28;20053;-56
2023/12/11 11:42:41;;;;;;;7.10;5.10;;;;;;;;;;4961080;28;20061;-60
2023/12/11 11:45:08;;;;;;;8.88;4.75;;;;;;;;;;4964396;28;20581;-59
2023/12/11 11:47:43;;;;;;;6.93;4.72;;;;;;;;;;4965160;28;20054;-54
2023/12/11 11:50:12;;;;;;;8.13;5.47;;;;;;;;;;4964275;28;20050;-51
2023/12/11 11:52:43;;;;;;;7.43;4.70;;;;;;;;;;4962106;28;20482;-51
2023/12/11 11:55:18;;;;;;;8.68;4.90;;;;;;;;;;4966867;28;20050;-53
2023/12/11 11:57:45;;;;;;;7.47;5.25;;;;;;;;;;4959394;28;20058;-73
2023/12/11 12:00:31;;;;;;;9.20;5.60;;;;;;;;;;4966612;28;20061;-60
2023/12/11 12:03:08;;;;;;;8.80;5.13;;;;;;;;;;4964936;28;20621;-63
2023/12/11 12:05:55;;;;;;;9.43;5.80;;;;;;;;;;4963047;28;20094;-63
2023/12/11 12:08:23;;;;;;;8.10;5.50;;;;;;;;;;4968172;28;20050;-63
2023/12/11 12:10:57;;;;;;;11.15;5.35;;;;;;;;;;4962032;28;20058;-63
2023/12/11 12:13:24;;;;;;;9.73;5.18;;;;;;;;;;4957074;28;20055;-63
2023/12/11 12:15:55;;;;;;;7.93;5.10;;;;;;;;;;4962782;28;20047;-65
2023/12/11 12:18:29;;;;;;;7.55;5.20;;;;;;;;;;4961671;28;20691;-73
2023/12/11 12:20:56;;;;;;;;;;;;;;;;;;4950802;28;20094;-73
2023/12/11 12:23:23;;;;;;;8.63;5.43;;;;;;;;;;4965874;28;19954;-73
2023/12/11 12:26:04;;;;;;;8.05;5.07;;;;;;;;;;4973422;28;20426;-72
2023/12/11 12:28:39;;;;;;;7.90;5.45;;;;;;;;;;4978427;28;20117;-61
2023/12/11 12:31:13;;;;;;;7.35;5.05;;;;;;;;;;4980247;28;20584;-57
2023/12/11 12:33:48;;;;;;;8.18;5.50;;;;;;;;;;4973014;28;20054;-56
2023/12/11 12:36:22;;;;;;;9.52;6.07;;;;;;;;;;4979692;28;20054;-56
2023/12/11 12:38:55;;;;;;;8.00;5.30;;;;;;;;;;4980288;28;20600;-56
2023/12/11 12:41:31;;;;;;;6.95;4.80;;;;;;;;;;4981516;28;20055;-55
2023/12/11 12:43:59;;;;;;;9.43;5.43;;;;;;;;;;4979190;28;20705;-54
2023/12/11 12:46:27;;;;;;;9.27;5.43;;;;;;;;;;4984706;28;20565;-61
2023/12/11 12:49:07;;;;;;;8.57;5.07;;;;;;;;;;4979406;28;20411;-61
2023/12/11 12:51:43;;;;;;;7.07;5.15;;;;;;;;;;4980557;28;20054;-61
2023/12/11 12:54:17;;;;;;;6.90;4.82;;;;;;;;;;4981757;28;20192;-60
2023/12/11 12:56:45;;;;;;;9.07;5.38;;;;;;;;;;4981682;28;20055;-60
2023/12/11 12:59:12;;;;;;;8.35;5.40;;;;;;;;;;4986627;28;20054;-62
2023/12/11 13:01:48;;;;;;;7.47;4.75;;;;;;;;;;4985284;28;20058;-61
2023/12/11 13:04:15;;;;;;;6.72;4.63;;;;;;;;;;4981392;28;20054;-61
2023/12/11 13:06:45;;;;;;;11.82;5.50;;;;;;;;;;4985587;28;20073;-61
2023/12/11 13:09:32;;;;;;;8.68;5.13;;;;;;;;;;4987137;28;20066;-61
2023/12/11 13:12:06;;;;;;;7.32;4.30;;;;;;;;;;4988192;28;20059;-61
2023/12/11 13:14:33;;;;;;;;;;;;;;;;;;4994938;28;20066;-61
2023/12/11 13:17:07;;;;;;;8.57;5.00;;;;;;;;;;4980184;28;19980;-61
2023/12/11 13:19:34;;;;;;;;;;;;;;;;;;4986657;28;20054;-61
2023/12/11 13:22:02;;;;;;;9.70;5.65;;;;;;;;;;4984889;28;19921;-60
2023/12/11 13:24:42;;;;;;;9.30;5.20;;;;;;;;;;4986352;28;20062;-59
2023/12/11 13:27:16;;;;;;;7.60;5.03;;;;;;;;;;4985937;28;20577;-61
2023/12/11 13:29:51;;;;;;;7.22;4.90;;;;;;;;;;4983351;28;20067;-61
2023/12/11 13:32:19;;;;;;;8.68;5.70;;;;;;;;;;4983453;28;20042;-61
2023/12/11 13:34:46;;;;;;;7.35;5.00;;;;;;;;;;4986352;28;20054;-62
2023/12/11 13:37:20;;;;;;;8.15;5.18;;;;;;;;;;4985865;28;20046;-61
2023/12/11 13:39:47;;;;;;;;;;;;;;;;;;4984613;28;20069;-61
2023/12/11 13:42:21;;;;;;;9.70;5.00;;;;;;;;;;4989487;28;19929;-54
2023/12/11 13:44:49;;;;;;;9.18;5.28;;;;;;;;;;4986320;28;20070;-52
2023/12/11 13:47:18;;;;;;;10.18;5.47;;;;;;;;;;4983900;28;20536;-50
2023/12/11 13:49:53;;;;;;;7.70;4.85;;;;;;;;;;4983345;28;20050;-53
2023/12/11 13:52:20;;;;;;;8.73;5.38;;;;;;;;;;4986289;28;20058;-74
2023/12/11 13:54:54;;;;;;;8.68;5.55;;;;;;;;;;4980491;28;20060;-52
2023/12/11 13:57:27;;;;;;;8.57;5.07;;;;;;;;;;4984201;28;20387;-51
2023/12/11 14:00:02;;;;;;;9.13;5.75;;;;;;;;;;4981848;28;20054;-53
2023/12/11 14:02:36;;;;;;;9.55;6.03;;;;;;;;;;4983236;28;20053;-53
2023/12/11 14:05:30;;;;;;;8.63;5.72;;;;;;;;;;4988614;28;20061;-51
2023/12/11 14:07:59;;;;;;;10.02;5.80;;;;;;;;;;4980150;28;20068;-52
2023/12/11 14:10:33;;;;;;;9.88;6.03;;;;;;;;;;4982114;28;20816;-64
2023/12/11 14:13:00;;;;;;;9.27;5.97;;;;;;;;;;4980182;28;20503;-63
2023/12/11 14:15:29;;;;;;;9.27;5.68;;;;;;;;;;4981746;28;20082;-64
2023/12/11 14:18:03;;;;;;;11.50;6.43;;;;;;;;;;4980712;28;20058;-63
2023/12/11 14:20:30;;;;;;;10.15;6.30;;;;;;;;;;4983444;28;20050;-74
2023/12/11 14:23:05;;;;;;;11.65;5.70;;;;;;;;;;5010541;28;20331;-53
2023/12/11 14:25:38;;;;;;;9.18;5.72;;;;;;;;;;4984786;28;20054;-58
2023/12/11 14:28:13;;;;;;;13.05;6.53;;;;;;;;;;4978370;28;20501;-57
2023/12/11 14:30:40;;;;;;;10.43;5.90;;;;;;;;;;4982807;28;20061;-57
2023/12/11 14:33:08;;;;;;;9.55;5.78;;;;;;;;;;4978140;28;20073;-58
2023/12/11 14:35:42;;;;;;;11.23;6.90;;;;;;;;;;4988100;28;20062;-58
2023/12/11 14:38:12;;;;;;;9.82;6.10;;;;;;;;;;4981867;28;20371;-65
2023/12/11 14:40:47;;;;;;;9.57;6.28;;;;;;;;;;4985594;28;20371;-59
2023/12/11 14:43:15;;;;;;;10.85;6.15;;;;;;;;;;4984147;28;20081;-59
2023/12/11 14:45:42;;;;;;;9.98;5.53;;;;;;;;;;4984151;28;20133;-59
2023/12/11 14:48:17;;;;;;;12.93;6.82;;;;;;;;;;4981096;28;20054;-57
2023/12/11 14:50:44;;;;;;;;;;;;;;;;;;4988257;28;20054;-60
2023/12/11 14:53:13;;;;;;;12.40;6.78;;;;;;;;;;4980053;28;19992;-63
2023/12/11 14:55:48;;;;;;;9.43;5.75;;;;;;;;;;4982176;28;20058;-63
2023/12/11 14:58:15;;;;;;;11.13;6.40;;;;;;;;;;4975440;28;20046;-63
2023/12/11 15:00:42;;;;;;;11.57;7.05;;;;;;;;;;4982713;28;20520;-63
2023/12/11 15:03:17;;;;;;;9.18;6.13;;;;;;;;;;4978671;28;20065;-63